Time;durP1;ratioP1;P1;durP2;ratioP2;P2;SDS_P1;SDS_P2;PMS_P1;PMS_P2;Temp;Humidity;BMP_temperature;BMP_pressure;BME280_temperature;BME280_humidity;BME280_pressure;Samples;Min_cycle;Max_cycle;Signal;HPM_P1;HPM_P2
2022/03/07 00:00:38;;;;;;;9.57;4.20;;;2.80;61.10;;;;;;9173838;19;20015;-60
2022/03/07 00:03:43;;;;;;;12.48;5.22;;;2.80;61.10;;;;;;9174887;19;20018;-60
2022/03/07 00:06:49;;;;;;;12.98;4.78;;;2.80;61.10;;;;;;9174705;19;20479;-60
2022/03/07 00:09:56;;;;;;;11.38;4.65;;;2.80;61.20;;;;;;9173741;19;20030;-60
2022/03/07 00:13:01;;;;;;;7.93;4.40;;;2.80;61.20;;;;;;9175420;19;20007;-60
2022/03/07 00:16:07;;;;;;;7.82;4.47;;;2.70;61.20;;;;;;9176036;19;20498;-63
2022/03/07 00:19:12;;;;;;;7.05;4.68;;;2.70;61.20;;;;;;9174041;19;20029;-60
2022/03/07 00:22:17;;;;;;;9.43;4.68;;;2.70;61.20;;;;;;9170916;19;20052;-61
2022/03/07 00:25:25;;;;;;;9.32;4.53;;;2.70;61.20;;;;;;9174187;19;20098;-63
2022/03/07 00:28:30;;;;;;;8.75;4.40;;;2.60;61.20;;;;;;9167909;19;20130;-60
2022/03/07 00:31:35;;;;;;;10.48;4.57;;;2.60;61.20;;;;;;9172337;19;20023;-61
2022/03/07 00:34:43;;;;;;;11.70;4.85;;;2.60;61.30;;;;;;9172167;19;20078;-60
2022/03/07 00:37:49;;;;;;;9.05;4.65;;;2.50;61.30;;;;;;9172023;19;20022;-61
2022/03/07 00:40:56;;;;;;;13.52;6.53;;;2.50;61.30;;;;;;9174005;19;20018;-60
2022/03/07 00:44:01;;;;;;;11.85;4.53;;;2.50;61.40;;;;;;9171806;19;20375;-59
2022/03/07 00:47:07;;;;;;;8.93;4.72;;;2.40;61.30;;;;;;9173211;19;20468;-60
2022/03/07 00:50:13;;;;;;;10.02;4.95;;;2.40;61.40;;;;;;9174354;19;20018;-62
2022/03/07 00:53:23;;;;;;;10.75;5.40;;;2.30;61.40;;;;;;9173902;19;20047;-60
2022/03/07 00:56:31;;;;;;;9.32;4.70;;;2.20;61.40;;;;;;9179222;19;20499;-59
2022/03/07 00:59:36;;;;;;;10.93;5.95;;;2.20;61.40;;;;;;9179436;19;20030;-59
2022/03/07 01:02:41;;;;;;;13.73;5.75;;;2.20;61.50;;;;;;9179358;19;20011;-59
2022/03/07 01:05:47;;;;;;;11.75;5.32;;;2.20;61.50;;;;;;9179519;19;20018;-62
2022/03/07 01:08:53;;;;;;;9.52;4.78;;;2.20;61.60;;;;;;9180665;19;20053;-60
2022/03/07 01:12:00;;;;;;;13.05;5.28;;;2.10;61.50;;;;;;9182213;19;20745;-59
2022/03/07 01:15:07;;;;;;;9.43;5.50;;;2.10;61.60;;;;;;9182872;19;20007;-59
2022/03/07 01:18:13;;;;;;;13.98;5.13;;;2.00;62.00;;;;;;9182454;19;20018;-60
2022/03/07 01:21:18;;;;;;;11.38;5.18;;;2.00;61.60;;;;;;9182214;19;20025;-61
2022/03/07 01:24:23;;;;;;;11.05;5.03;;;2.00;61.60;;;;;;9179193;19;20022;-58
2022/03/07 01:27:31;;;;;;;11.55;5.60;;;1.90;61.60;;;;;;9174636;19;20019;-60
2022/03/07 01:30:37;;;;;;;11.63;4.90;;;1.90;61.70;;;;;;9180096;19;20026;-61
2022/03/07 01:33:42;;;;;;;12.55;5.35;;;1.80;61.70;;;;;;9182288;19;21348;-61
2022/03/07 01:36:47;;;;;;;10.25;5.47;;;1.80;61.70;;;;;;9182068;19;20054;-61
2022/03/07 01:39:52;;;;;;;14.65;5.95;;;1.80;61.70;;;;;;9181885;19;20018;-60
2022/03/07 01:43:00;;;;;;;11.35;5.75;;;1.70;61.70;;;;;;9179508;19;20019;-59
2022/03/07 01:46:05;;;;;;;10.77;5.38;;;1.70;61.70;;;;;;9178393;19;20026;-60
2022/03/07 01:49:10;;;;;;;11.95;5.40;;;1.70;61.80;;;;;;9179634;19;20512;-61
2022/03/07 01:52:18;;;;;;;14.52;5.28;;;1.60;61.70;;;;;;9181296;19;20022;-60
2022/03/07 01:55:25;;;;;;;8.68;5.25;;;1.60;61.80;;;;;;9179111;19;20018;-60
2022/03/07 01:58:37;;;;;;;11.63;5.75;;;1.50;61.80;;;;;;9180816;19;20020;-60
2022/03/07 02:01:42;;;;;;;10.35;5.63;;;1.50;61.90;;;;;;9178773;19;20353;-61
2022/03/07 02:04:47;;;;;;;8.05;4.90;;;1.50;61.90;;;;;;9178469;19;20363;-59
2022/03/07 02:07:53;;;;;;;9.18;6.03;;;1.50;61.90;;;;;;9175327;19;20014;-60
2022/03/07 02:10:58;;;;;;;10.00;5.47;;;1.40;62.00;;;;;;9175730;19;20074;-61
2022/03/07 02:14:16;;;;;;;12.57;6.03;;;1.40;62.00;;;;;;9179135;19;20407;-59
2022/03/07 02:17:22;;;;;;;9.73;5.68;;;1.40;62.10;;;;;;9179399;19;20018;-59
2022/03/07 02:20:28;;;;;;;12.45;5.82;;;1.30;62.00;;;;;;9182147;19;20046;-58
2022/03/07 02:23:37;;;;;;;7.93;5.40;;;1.30;62.10;;;;;;9178185;19;20014;-61
2022/03/07 02:26:42;;;;;;;9.65;5.93;;;1.30;62.10;;;;;;9176959;19;20019;-59
2022/03/07 02:29:48;;;;;;;13.43;6.30;;;1.20;62.10;;;;;;9175607;19;20015;-60
2022/03/07 02:32:59;;;;;;;8.57;5.95;;;1.30;62.20;;;;;;9177852;19;20499;-58
2022/03/07 02:36:06;;;;;;;9.65;6.03;;;1.20;62.10;;;;;;9179186;19;20678;-60
2022/03/07 02:39:16;;;;;;;10.30;5.25;;;1.20;62.20;;;;;;9178716;19;20021;-59
2022/03/07 02:42:21;;;;;;;10.55;5.57;;;1.10;62.20;;;;;;9180919;19;20022;-60
2022/03/07 02:45:27;;;;;;;16.77;5.85;;;1.10;62.20;;;;;;9176475;19;20018;-59
2022/03/07 02:48:32;;;;;;;11.20;5.63;;;1.10;62.30;;;;;;9177158;19;20030;-61
2022/03/07 02:51:37;;;;;;;14.75;5.70;;;1.00;62.20;;;;;;9176913;19;20019;-59
2022/03/07 02:54:45;;;;;;;14.65;6.15;;;1.00;62.30;;;;;;9178513;19;20030;-60
2022/03/07 02:57:50;;;;;;;9.73;5.95;;;1.00;62.30;;;;;;9179331;19;20545;-59
2022/03/07 03:00:55;;;;;;;11.10;6.15;;;1.00;62.30;;;;;;9175773;19;20019;-61
2022/03/07 03:04:01;;;;;;;9.68;5.80;;;0.90;62.40;;;;;;9176061;19;20018;-59
2022/03/07 03:07:06;;;;;;;16.35;6.07;;;0.90;62.40;;;;;;9176314;19;20044;-59
2022/03/07 03:10:14;;;;;;;12.85;6.40;;;0.90;62.40;;;;;;9176953;19;20025;-59
2022/03/07 03:13:20;;;;;;;11.38;6.25;;;0.80;62.40;;;;;;9177059;19;20764;-60
2022/03/07 03:16:28;;;;;;;13.25;6.38;;;0.90;62.50;;;;;;9177846;19;20025;-58
2022/03/07 03:19:33;;;;;;;11.55;6.63;;;0.80;62.50;;;;;;9177660;19;20037;-60
2022/03/07 03:22:38;;;;;;;13.82;6.13;;;0.80;62.50;;;;;;9176273;19;20507;-59
2022/03/07 03:25:46;;;;;;;9.85;6.10;;;0.80;62.60;;;;;;9178316;19;20022;-61
2022/03/07 03:28:51;;;;;;;8.73;5.32;;;0.70;62.60;;;;;;9172897;19;20579;-60
2022/03/07 03:31:56;;;;;;;10.98;6.25;;;0.70;62.60;;;;;;9176806;19;20509;-61
2022/03/07 03:35:02;;;;;;;11.68;5.85;;;0.70;62.60;;;;;;9178123;19;20353;-58
2022/03/07 03:38:08;;;;;;;15.05;6.43;;;0.70;62.70;;;;;;9180571;19;20878;-60
2022/03/07 03:41:16;;;;;;;9.45;6.03;;;0.60;62.70;;;;;;9176610;19;20024;-60
2022/03/07 03:44:21;;;;;;;12.95;6.10;;;0.60;62.80;;;;;;9175085;19;20014;-60
2022/03/07 03:47:26;;;;;;;13.25;6.10;;;0.60;62.80;;;;;;9175577;19;20019;-59
2022/03/07 03:50:31;;;;;;;12.15;5.47;;;0.50;62.70;;;;;;9175160;19;20022;-60
2022/03/07 03:53:39;;;;;;;9.57;5.85;;;0.50;62.80;;;;;;9177762;19;20022;-59
2022/03/07 03:56:47;;;;;;;9.75;6.18;;;0.50;62.90;;;;;;9177034;19;20018;-60
2022/03/07 03:59:52;;;;;;;12.38;6.50;;;0.40;62.70;;;;;;9177985;19;20018;-58
2022/03/07 04:02:59;;;;;;;16.08;7.15;;;0.40;62.80;;;;;;9177763;19;20051;-60
2022/03/07 04:06:06;;;;;;;10.75;6.32;;;0.40;62.90;;;;;;9176212;19;20459;-61
2022/03/07 04:09:17;;;;;;;13.05;6.72;;;0.40;62.80;;;;;;9174344;19;20582;-58
2022/03/07 04:12:25;;;;;;;12.18;6.05;;;0.30;62.90;;;;;;9174112;19;20404;-58
2022/03/07 04:15:30;;;;;;;11.18;6.00;;;0.30;62.90;;;;;;9175333;19;20018;-60
2022/03/07 04:18:35;;;;;;;10.77;6.20;;;0.30;62.90;;;;;;9176302;19;20025;-60
2022/03/07 04:21:41;;;;;;;12.90;6.50;;;0.30;62.90;;;;;;9175757;19;20357;-61
2022/03/07 04:24:47;;;;;;;15.95;6.22;;;0.30;63.00;;;;;;9173814;19;20011;-60
2022/03/07 04:27:54;;;;;;;10.35;7.05;;;0.20;62.90;;;;;;9168757;19;20014;-59
2022/03/07 04:30:59;;;;;;;10.63;5.93;;;0.20;62.90;;;;;;9173222;19;20025;-59
2022/03/07 04:34:04;;;;;;;12.93;6.63;;;0.20;63.00;;;;;;9183208;19;20029;-62
2022/03/07 04:37:09;;;;;;;9.85;5.93;;;0.20;63.00;;;;;;9183151;19;20035;-61
2022/03/07 04:40:16;;;;;;;12.55;6.55;;;0.20;63.10;;;;;;9186139;19;20022;-58
2022/03/07 04:43:24;;;;;;;13.48;7.07;;;0.10;63.10;;;;;;9185590;19;20506;-61
2022/03/07 04:46:30;;;;;;;14.90;7.18;;;0.10;63.10;;;;;;9181150;19;20022;-60
2022/03/07 04:49:36;;;;;;;12.35;6.85;;;0.10;63.20;;;;;;9183347;19;20022;-59
2022/03/07 04:52:41;;;;;;;12.82;7.25;;;0.10;63.20;;;;;;9181942;19;20025;-61
2022/03/07 04:55:47;;;;;;;14.40;7.32;;;0.10;63.30;;;;;;9184095;19;20018;-60
2022/03/07 04:58:54;;;;;;;11.65;6.40;;;0.00;63.30;;;;;;9183913;19;20356;-60
2022/03/07 05:02:00;;;;;;;16.40;6.53;;;0.10;63.40;;;;;;9182287;19;20498;-61
2022/03/07 05:05:05;;;;;;;10.93;6.60;;;0.00;63.40;;;;;;9184315;19;20025;-61
2022/03/07 05:08:10;;;;;;;12.23;6.90;;;0.10;63.50;;;;;;9180340;19;20022;-60
2022/03/07 05:11:16;;;;;;;13.05;7.75;;;0.10;63.60;;;;;;9179889;19;20026;-58
2022/03/07 05:14:24;;;;;;;15.57;8.25;;;0.10;63.70;;;;;;9182293;19;20022;-60
2022/03/07 05:17:29;;;;;;;13.18;7.53;;;0.10;63.70;;;;;;9180368;19;20023;-60
2022/03/07 05:20:37;;;;;;;16.02;7.68;;;0.10;63.80;;;;;;9178622;19;20014;-59
2022/03/07 05:24:00;;;;;;;20.35;7.88;;;0.20;63.80;;;;;;9180674;19;21486;-59
2022/03/07 05:27:05;;;;;;;12.55;7.43;;;0.20;63.80;;;;;;9181101;19;20007;-64
2022/03/07 05:30:16;;;;;;;10.82;7.32;;;0.20;63.80;;;;;;9182519;19;20018;-57
2022/03/07 05:33:21;;;;;;;13.90;7.70;;;0.20;63.90;;;;;;9178586;19;20015;-59
2022/03/07 05:36:26;;;;;;;11.77;7.22;;;0.30;63.90;;;;;;9181307;19;20037;-61
2022/03/07 05:39:31;;;;;;;12.43;7.43;;;0.30;64.00;;;;;;9179154;19;20022;-59
2022/03/07 05:42:36;;;;;;;18.25;9.98;;;0.30;64.00;;;;;;9180955;19;20007;-62
2022/03/07 05:45:44;;;;;;;16.98;8.10;;;0.40;64.00;;;;;;9183715;19;20464;-61
2022/03/07 05:48:49;;;;;;;12.35;7.45;;;0.40;64.00;;;;;;9182648;19;20040;-60
2022/03/07 05:51:54;;;;;;;11.57;7.35;;;0.40;64.10;;;;;;9178024;19;20021;-60
2022/03/07 05:54:59;;;;;;;12.80;7.28;;;0.50;64.10;;;;;;9180267;19;20026;-59
2022/03/07 05:58:04;;;;;;;16.65;7.72;;;0.50;64.00;;;;;;9181150;19;20034;-59
2022/03/07 06:01:12;;;;;;;17.02;7.55;;;0.50;64.00;;;;;;9181565;19;20034;-59
2022/03/07 06:04:17;;;;;;;13.18;7.70;;;0.50;64.10;;;;;;9179956;19;20026;-59
2022/03/07 06:07:22;;;;;;;14.77;7.28;;;0.50;64.10;;;;;;9180897;19;20010;-61
2022/03/07 06:10:28;;;;;;;13.05;7.55;;;0.50;64.10;;;;;;9180301;19;20609;-60
2022/03/07 06:13:39;;;;;;;16.50;7.72;;;0.50;64.10;;;;;;9178134;19;20014;-59
2022/03/07 06:16:46;;;;;;;10.30;6.88;;;0.50;64.10;;;;;;9180784;19;20030;-62
2022/03/07 06:19:51;;;;;;;13.57;6.75;;;0.50;64.10;;;;;;9179039;19;20404;-58
2022/03/07 06:22:57;;;;;;;14.68;8.05;;;0.50;64.10;;;;;;9180426;19;20019;-60
2022/03/07 06:26:01;;;;;;;17.08;8.52;;;0.50;64.10;;;;;;9179161;19;20045;-59
2022/03/07 06:29:07;;;;;;;17.95;7.88;;;0.50;64.20;;;;;;9176583;19;20443;-59
2022/03/07 06:32:15;;;;;;;10.40;7.38;;;0.50;64.30;;;;;;9180612;19;20359;-59
2022/03/07 06:35:20;;;;;;;14.80;7.20;;;0.50;64.30;;;;;;9175817;19;20022;-61
2022/03/07 06:38:25;;;;;;;14.35;6.78;;;0.50;64.30;;;;;;9178661;19;20018;-58
2022/03/07 06:41:30;;;;;;;12.68;7.35;;;0.40;64.30;;;;;;9178293;19;20018;-59
2022/03/07 06:44:39;;;;;;;17.83;7.93;;;0.40;64.40;;;;;;9177466;19;20014;-60
2022/03/07 06:47:47;;;;;;;15.40;7.88;;;0.40;64.40;;;;;;9178385;19;20029;-60
2022/03/07 06:50:52;;;;;;;14.48;7.53;;;0.40;64.50;;;;;;9177995;19;20011;-60
2022/03/07 06:53:57;;;;;;;12.68;7.57;;;0.40;64.60;;;;;;9177683;19;20348;-61
2022/03/07 06:57:03;;;;;;;14.63;7.93;;;0.40;64.60;;;;;;9176793;19;20014;-59
2022/03/07 07:00:11;;;;;;;16.67;7.63;;;0.50;64.70;;;;;;9175211;19;20018;-60
2022/03/07 07:03:18;;;;;;;15.35;7.65;;;0.50;64.80;;;;;;9173542;19;20014;-59
2022/03/07 07:06:24;;;;;;;11.75;6.63;;;0.50;64.70;;;;;;9175410;19;20078;-59
2022/03/07 07:09:29;;;;;;;13.77;7.63;;;0.50;64.70;;;;;;9178859;19;20029;-61
2022/03/07 07:12:34;;;;;;;10.32;7.35;;;0.50;64.80;;;;;;9173364;19;20022;-60
2022/03/07 07:15:39;;;;;;;11.50;7.68;;;0.60;64.80;;;;;;9174781;19;20355;-60
2022/03/07 07:18:46;;;;;;;15.68;7.40;;;0.60;65.40;;;;;;9169674;19;20022;-59
2022/03/07 07:21:51;;;;;;;13.32;7.38;;;0.60;64.90;;;;;;9169606;19;20015;-60
2022/03/07 07:24:57;;;;;;;14.93;8.10;;;0.60;64.90;;;;;;9171247;19;20023;-62
2022/03/07 07:28:01;;;;;;;15.65;8.70;;;0.70;65.10;;;;;;9167591;19;20029;-60
2022/03/07 07:31:07;;;;;;;18.92;10.15;;;0.70;65.20;;;;;;9169966;19;20506;-58
2022/03/07 07:34:14;;;;;;;25.13;10.05;;;0.80;65.40;;;;;;9170774;19;20010;-61
2022/03/07 07:37:19;;;;;;;22.67;9.90;;;0.80;65.40;;;;;;9170646;19;20029;-60
2022/03/07 07:40:24;;;;;;;18.10;9.45;;;0.90;65.40;;;;;;9168785;19;20027;-61
2022/03/07 07:43:29;;;;;;;20.92;10.02;;;0.90;65.50;;;;;;9175487;19;20019;-62
2022/03/07 07:46:35;;;;;;;20.38;10.05;;;1.10;65.60;;;;;;9173693;19;20006;-60
2022/03/07 07:49:43;;;;;;;18.42;10.90;;;1.10;65.70;;;;;;9174435;19;20022;-60
2022/03/07 07:52:48;;;;;;;17.50;10.13;;;1.20;65.90;;;;;;9167683;19;20498;-60
2022/03/07 07:55:53;;;;;;;19.30;10.02;;;1.40;66.00;;;;;;9174551;19;20018;-61
2022/03/07 07:58:58;;;;;;;16.95;10.60;;;1.50;66.10;;;;;;9173193;19;20034;-61
2022/03/07 08:02:04;;;;;;;22.17;10.80;;;1.60;66.10;;;;;;9163145;19;20049;-62
2022/03/07 08:05:12;;;;;;;18.40;11.20;;;1.80;66.20;;;;;;9169217;19;20040;-58
2022/03/07 08:08:17;;;;;;;23.20;10.88;;;1.90;66.30;;;;;;9168148;19;20384;-61
2022/03/07 08:11:22;;;;;;;16.48;10.35;;;2.10;66.40;;;;;;9169364;19;20022;-62
2022/03/07 08:14:27;;;;;;;16.10;10.52;;;2.30;66.50;;;;;;9167209;19;20010;-61
2022/03/07 08:17:32;;;;;;;20.17;11.18;;;2.50;66.50;;;;;;9172766;19;20031;-59
2022/03/07 08:20:40;;;;;;;17.60;9.73;;;2.70;66.50;;;;;;9174972;19;20090;-61
2022/03/07 08:23:45;;;;;;;22.10;9.70;;;2.90;66.50;;;;;;9170156;19;20324;-60
2022/03/07 08:26:50;;;;;;;17.45;9.20;;;3.20;66.60;;;;;;9175327;19;20022;-59
2022/03/07 08:29:55;;;;;;;19.25;9.45;;;3.40;66.60;;;;;;9170353;19;20015;-62
2022/03/07 08:33:00;;;;;;;16.38;9.38;;;3.60;66.50;;;;;;9175698;19;20478;-62
2022/03/07 08:36:08;;;;;;;16.95;9.60;;;3.90;66.70;;;;;;9177180;19;20014;-60
2022/03/07 08:39:13;;;;;;;15.40;9.18;;;4.10;66.50;;;;;;9178284;19;20018;-62
2022/03/07 08:42:19;;;;;;;14.27;8.73;;;4.30;66.50;;;;;;9174460;19;20046;-59
2022/03/07 08:45:25;;;;;;;16.15;8.95;;;4.50;66.40;;;;;;9174636;19;20034;-61
2022/03/07 08:48:50;;;;;;;17.15;9.18;;;4.70;66.40;;;;;;9175682;19;20075;-61
2022/03/07 08:51:58;;;;;;;16.80;9.10;;;5.00;66.30;;;;;;9174616;19;20028;-62
2022/03/07 08:55:04;;;;;;;14.48;8.27;;;5.20;66.20;;;;;;9175281;19;20690;-61
2022/03/07 08:58:08;;;;;;;14.15;7.90;;;5.40;66.10;;;;;;9174433;19;20502;-59
2022/03/07 09:01:13;;;;;;;12.05;7.93;;;5.60;66.00;;;;;;9176421;19;20400;-61
2022/03/07 09:04:20;;;;;;;13.30;7.82;;;5.80;66.00;;;;;;9166656;19;20009;-62
2022/03/07 09:07:28;;;;;;;13.40;8.15;;;6.00;66.00;;;;;;9174332;19;20656;-60
2022/03/07 09:10:34;;;;;;;16.55;8.30;;;6.20;66.00;;;;;;9171543;19;20516;-60
2022/03/07 09:13:38;;;;;;;13.02;7.25;;;6.40;66.00;;;;;;9173966;19;20026;-59
2022/03/07 09:16:44;;;;;;;13.52;7.38;;;6.60;65.90;;;;;;9175712;19;20007;-58
2022/03/07 09:19:49;;;;;;;12.98;7.25;;;6.80;65.80;;;;;;9179925;19;20014;-62
2022/03/07 09:22:57;;;;;;;12.10;7.75;;;7.00;65.70;;;;;;9179895;19;20030;-61
2022/03/07 09:26:02;;;;;;;13.27;7.13;;;7.20;65.60;;;;;;9170316;19;20015;-63
2022/03/07 09:29:07;;;;;;;13.38;7.82;;;7.40;65.60;;;;;;9172113;19;20050;-63
2022/03/07 09:32:12;;;;;;;18.73;6.82;;;7.60;65.50;;;;;;9176178;19;20019;-60
2022/03/07 09:35:17;;;;;;;17.70;7.63;;;7.70;65.40;;;;;;9178170;19;20022;-62
2022/03/07 09:38:26;;;;;;;10.23;6.40;;;7.90;65.30;;;;;;9176503;19;20025;-60
2022/03/07 09:41:31;;;;;;;11.32;6.78;;;8.10;65.30;;;;;;9177976;19;20010;-59
2022/03/07 09:44:36;;;;;;;10.70;5.95;;;8.30;65.20;;;;;;9177361;19;20744;-59
2022/03/07 09:47:44;;;;;;;13.15;7.00;;;8.50;65.10;;;;;;9172091;19;20102;-60
2022/03/07 09:50:50;;;;;;;14.00;7.43;;;8.60;65.00;;;;;;9174791;19;20022;-61
2022/03/07 09:53:59;;;;;;;17.20;6.07;;;8.80;65.00;;;;;;9174687;19;20111;-61
2022/03/07 09:57:06;;;;;;;18.65;8.50;;;9.00;64.90;;;;;;9177434;19;20502;-61
2022/03/07 10:00:13;;;;;;;17.48;7.75;;;9.20;64.80;;;;;;9177919;19;20036;-63
2022/03/07 10:03:19;;;;;;;12.45;6.63;;;9.40;64.70;;;;;;9179128;19;20078;-60
2022/03/07 10:06:25;;;;;;;12.63;7.40;;;9.50;64.60;;;;;;9179319;19;20015;-59
2022/03/07 10:09:32;;;;;;;13.45;6.72;;;9.70;64.70;;;;;;9175031;19;20078;-60
2022/03/07 10:12:46;;;;;;;13.18;7.13;;;9.90;64.50;;;;;;9172752;19;20484;-59
2022/03/07 10:15:59;;;;;;;14.95;6.47;;;10.10;64.30;;;;;;9175456;19;20038;-61
2022/03/07 10:19:09;;;;;;;12.43;6.25;;;10.20;64.10;;;;;;9176243;19;20011;-63
2022/03/07 10:22:19;;;;;;;10.48;4.97;;;10.40;64.00;;;;;;9177118;19;20017;-61
2022/03/07 10:25:28;;;;;;;12.98;5.50;;;10.50;63.80;;;;;;9175706;19;20011;-60
2022/03/07 10:28:37;;;;;;;9.35;4.82;;;10.60;63.60;;;;;;9172241;19;20025;-60
2022/03/07 10:31:47;;;;;;;10.35;4.00;;;10.70;63.40;;;;;;9174512;19;20029;-64
2022/03/07 10:34:53;;;;;;;11.10;5.25;;;10.90;63.40;;;;;;9172905;19;20015;-60
2022/03/07 10:38:00;;;;;;;6.50;3.38;;;11.00;63.20;;;;;;9172093;19;20010;-60
2022/03/07 10:41:08;;;;;;;7.90;3.63;;;11.10;63.00;;;;;;9174243;19;20498;-61
2022/03/07 10:44:25;;;;;;;9.75;4.45;;;11.10;62.70;;;;;;9175720;19;20014;-64
2022/03/07 10:47:32;;;;;;;11.75;5.03;;;11.20;62.70;;;;;;9175901;19;20057;-60
2022/03/07 10:50:37;;;;;;;8.98;5.05;;;11.30;62.70;;;;;;9174618;19;20037;-60
2022/03/07 10:53:43;;;;;;;7.22;4.07;;;11.30;62.50;;;;;;9173280;19;20010;-61
2022/03/07 10:56:55;;;;;;;7.35;4.72;;;11.40;62.50;;;;;;9172871;19;20010;-60
2022/03/07 11:00:11;;;;;;;20.08;5.97;;;11.50;62.30;;;;;;9175050;19;20509;-61
2022/03/07 11:03:21;;;;;;;9.45;5.30;;;11.50;62.20;;;;;;9174736;19;20356;-61
2022/03/07 11:06:28;;;;;;;11.10;5.13;;;11.50;62.20;;;;;;9175366;19;20030;-60
2022/03/07 11:09:33;;;;;;;10.07;5.10;;;11.60;62.20;;;;;;9176739;19;20014;-62
2022/03/07 11:12:41;;;;;;;7.35;4.45;;;11.70;62.10;;;;;;9180214;19;20479;-60
2022/03/07 11:15:47;;;;;;;9.15;4.90;;;11.70;61.90;;;;;;9175966;19;20641;-61
2022/03/07 11:18:56;;;;;;;10.82;4.60;;;11.70;61.80;;;;;;9174949;19;20025;-60
2022/03/07 11:22:07;;;;;;;7.75;4.75;;;11.70;61.70;;;;;;9177115;19;20018;-60
2022/03/07 11:25:16;;;;;;;10.50;4.50;;;11.80;61.60;;;;;;9172497;19;20593;-61
2022/03/07 11:28:25;;;;;;;9.27;4.40;;;11.80;61.50;;;;;;9168818;19;20484;-63
2022/03/07 11:31:32;;;;;;;7.15;4.60;;;11.80;61.40;;;;;;9176457;19;20353;-63
2022/03/07 11:34:38;;;;;;;8.88;4.03;;;11.80;61.40;;;;;;9168301;19;20022;-61
2022/03/07 11:37:44;;;;;;;13.10;4.63;;;11.80;61.30;;;;;;9171485;19;20033;-64
2022/03/07 11:41:00;;;;;;;10.18;5.00;;;11.80;61.30;;;;;;9174405;19;20018;-64
2022/03/07 11:44:10;;;;;;;12.48;5.10;;;11.80;61.20;;;;;;9170180;19;20497;-62
2022/03/07 11:47:18;;;;;;;13.55;5.15;;;11.80;61.20;;;;;;9170388;19;20051;-62
2022/03/07 11:50:24;;;;;;;9.30;3.80;;;11.70;61.10;;;;;;9171726;19;20023;-64
2022/03/07 11:53:29;;;;;;;10.75;4.60;;;11.70;61.10;;;;;;9170775;19;20038;-65
2022/03/07 11:56:37;;;;;;;12.63;4.90;;;11.70;61.10;;;;;;9172096;19;20010;-63
2022/03/07 11:59:45;;;;;;;8.55;4.18;;;11.70;61.10;;;;;;9174368;19;20029;-63
2022/03/07 12:02:53;;;;;;;8.70;4.53;;;11.70;61.10;;;;;;9173511;19;20026;-62
2022/03/07 12:06:04;;;;;;;8.57;4.18;;;11.70;60.90;;;;;;9177410;19;20026;-61
2022/03/07 12:09:09;;;;;;;5.20;2.85;;;11.80;61.00;;;;;;9170198;19;20029;-62
2022/03/07 12:12:17;;;;;;;5.80;3.30;;;11.80;61.40;;;;;;9170749;19;20018;-62
2022/03/07 12:15:25;;;;;;;6.82;3.75;;;11.90;60.50;;;;;;9172986;19;20026;-62
2022/03/07 12:18:31;;;;;;;7.28;3.65;;;11.90;60.30;;;;;;9175121;19;20014;-61
2022/03/07 12:21:37;;;;;;;7.50;4.70;;;11.90;60.10;;;;;;9176010;19;20025;-61
2022/03/07 12:24:42;;;;;;;9.05;4.82;;;11.90;59.90;;;;;;9175823;19;20021;-62
2022/03/07 12:27:47;;;;;;;9.27;4.78;;;11.90;59.80;;;;;;9172339;19;20010;-63
2022/03/07 12:30:58;;;;;;;7.85;4.20;;;11.80;59.80;;;;;;9176011;19;20018;-62
2022/03/07 12:34:04;;;;;;;7.95;4.10;;;11.80;59.50;;;;;;9173729;19;20015;-63
2022/03/07 12:37:11;;;;;;;7.88;4.55;;;11.80;59.60;;;;;;9175076;19;20018;-61
2022/03/07 12:40:16;;;;;;;7.88;4.65;;;11.70;59.40;;;;;;9176115;19;20025;-62
2022/03/07 12:43:25;;;;;;;11.95;5.45;;;11.70;59.40;;;;;;9174876;19;20403;-64
2022/03/07 12:46:33;;;;;;;8.30;5.15;;;11.70;59.40;;;;;;9175689;19;20527;-63
2022/03/07 12:49:38;;;;;;;12.43;4.90;;;11.60;59.90;;;;;;9175299;19;20018;-63
2022/03/07 12:52:45;;;;;;;10.23;5.57;;;11.60;59.30;;;;;;9177242;19;20255;-61
2022/03/07 12:55:50;;;;;;;8.57;5.20;;;11.50;59.30;;;;;;9182300;19;20022;-61
2022/03/07 12:58:57;;;;;;;10.00;4.07;;;11.50;59.30;;;;;;9182570;19;20038;-62
2022/03/07 13:02:07;;;;;;;7.93;5.00;;;11.50;59.20;;;;;;9183677;19;20003;-62
2022/03/07 13:05:14;;;;;;;9.23;4.55;;;11.50;59.10;;;;;;9185365;19;20023;-62
2022/03/07 13:08:19;;;;;;;8.35;5.07;;;11.40;59.20;;;;;;9184294;19;20014;-63
2022/03/07 13:11:34;;;;;;;9.55;4.68;;;11.40;59.10;;;;;;9184443;19;20006;-62
2022/03/07 13:14:41;;;;;;;8.52;4.45;;;11.40;58.90;;;;;;9183469;19;20390;-62
2022/03/07 13:17:49;;;;;;;6.85;3.58;;;11.30;59.00;;;;;;9182149;19;20025;-61
2022/03/07 13:20:54;;;;;;;12.05;4.30;;;11.30;58.90;;;;;;9181830;19;20014;-61
2022/03/07 13:23:59;;;;;;;9.60;3.83;;;11.20;58.90;;;;;;9183438;19;20385;-61
2022/03/07 13:27:10;;;;;;;6.53;3.00;;;11.10;58.80;;;;;;9180249;19;20011;-68
2022/03/07 13:30:16;;;;;;;5.05;3.00;;;11.00;58.80;;;;;;9182924;19;20513;-62
2022/03/07 13:33:24;;;;;;;7.43;2.90;;;10.80;58.70;;;;;;9182342;19;20380;-63
2022/03/07 13:36:41;;;;;;;6.85;3.50;;;10.70;58.70;;;;;;9180184;19;20014;-63
2022/03/07 13:39:59;;;;;;;8.38;3.25;;;10.60;58.70;;;;;;9181862;19;20010;-61
2022/03/07 13:43:04;;;;;;;6.05;3.40;;;10.50;58.90;;;;;;9175671;19;20019;-61
2022/03/07 13:46:16;;;;;;;6.05;3.22;;;10.40;59.00;;;;;;9179807;19;20029;-61
2022/03/07 13:49:28;;;;;;;4.82;3.00;;;10.30;58.90;;;;;;9173026;19;20022;-62
2022/03/07 13:52:35;;;;;;;5.93;3.17;;;10.20;59.00;;;;;;9181520;19;20028;-63
2022/03/07 13:55:42;;;;;;;7.70;3.72;;;10.10;59.10;;;;;;9179616;19;20918;-60
2022/03/07 13:58:47;;;;;;;7.80;2.97;;;10.10;59.10;;;;;;9181509;19;20029;-61
2022/03/07 14:01:52;;;;;;;5.88;2.78;;;10.00;59.10;;;;;;9185560;19;20023;-61
2022/03/07 14:05:02;;;;;;;5.70;2.60;;;9.90;59.00;;;;;;9176718;19;20479;-62
2022/03/07 14:08:07;;;;;;;3.13;2.28;;;9.90;59.00;;;;;;9180534;19;20416;-61
2022/03/07 14:11:27;;;;;;;3.17;2.10;;;9.80;59.00;;;;;;9181266;19;20044;-61
2022/03/07 14:14:32;;;;;;;4.03;2.25;;;9.80;59.00;;;;;;9181425;19;20014;-61
2022/03/07 14:17:39;;;;;;;4.15;2.10;;;9.70;58.90;;;;;;9182711;19;20351;-62
2022/03/07 14:20:47;;;;;;;5.70;2.50;;;9.60;58.90;;;;;;9180080;19;20376;-60
2022/03/07 14:23:52;;;;;;;6.95;2.83;;;9.60;58.90;;;;;;9180802;19;20018;-61
2022/03/07 14:26:57;;;;;;;4.00;2.00;;;9.60;58.90;;;;;;9180070;19;20489;-62
2022/03/07 14:30:03;;;;;;;6.70;2.47;;;9.50;58.80;;;;;;9179301;19;20014;-62
2022/03/07 14:33:09;;;;;;;4.95;1.95;;;9.50;58.80;;;;;;9180448;19;20360;-61
2022/03/07 14:36:16;;;;;;;6.53;1.58;;;9.50;58.80;;;;;;9178369;19;20475;-62
2022/03/07 14:39:21;;;;;;;2.97;1.75;;;9.50;58.60;;;;;;9180715;19;20025;-59
2022/03/07 14:42:28;;;;;;;4.50;1.65;;;9.50;58.50;;;;;;9175098;19;20026;-62
2022/03/07 14:45:33;;;;;;;3.35;1.98;;;9.50;58.40;;;;;;9181026;19;20026;-64
2022/03/07 14:48:40;;;;;;;3.10;1.95;;;9.50;58.40;;;;;;9172751;19;20029;-62
2022/03/07 14:51:47;;;;;;;6.00;2.50;;;9.50;58.40;;;;;;9177814;19;20473;-62
2022/03/07 14:54:53;;;;;;;5.80;2.10;;;9.50;58.30;;;;;;9177771;19;20011;-61
2022/03/07 14:58:18;;;;;;;2.75;1.65;;;9.50;58.40;;;;;;9174430;19;20523;-60
2022/03/07 15:01:23;;;;;;;2.95;1.60;;;9.50;58.30;;;;;;9176490;19;20025;-59
2022/03/07 15:04:28;;;;;;;4.22;2.10;;;9.50;58.10;;;;;;9180021;19;20014;-62
2022/03/07 15:07:36;;;;;;;3.60;1.98;;;9.50;58.00;;;;;;9175537;19;20022;-61
2022/03/07 15:10:42;;;;;;;3.63;2.33;;;9.50;57.90;;;;;;9178651;19;20018;-63
2022/03/07 15:13:47;;;;;;;4.22;2.00;;;9.50;58.10;;;;;;9177524;19;20011;-60
2022/03/07 15:16:53;;;;;;;6.45;2.38;;;9.50;58.10;;;;;;9176768;19;20010;-61
2022/03/07 15:19:59;;;;;;;2.47;2.15;;;9.50;58.00;;;;;;9179653;19;20014;-60
2022/03/07 15:23:07;;;;;;;8.90;2.50;;;9.50;57.90;;;;;;9180128;19;20014;-60
2022/03/07 15:26:12;;;;;;;4.82;2.35;;;9.50;57.70;;;;;;9180673;19;20019;-60
2022/03/07 15:29:20;;;;;;;4.82;2.58;;;9.40;57.70;;;;;;9181539;19;20038;-60
2022/03/07 15:32:25;;;;;;;3.50;2.17;;;9.40;57.70;;;;;;9177465;19;20015;-61
2022/03/07 15:35:30;;;;;;;4.20;2.00;;;9.40;57.70;;;;;;9175764;19;20052;-62
2022/03/07 15:38:38;;;;;;;6.50;2.72;;;9.40;57.70;;;;;;9178646;19;20344;-62
2022/03/07 15:41:44;;;;;;;4.57;2.42;;;9.40;57.60;;;;;;9172780;19;20018;-62
2022/03/07 15:44:49;;;;;;;3.28;2.33;;;9.40;57.60;;;;;;9175750;19;20015;-61
2022/03/07 15:47:54;;;;;;;3.80;2.65;;;9.30;57.60;;;;;;9166348;19;20109;-61
2022/03/07 15:51:00;;;;;;;7.10;2.75;;;9.30;57.60;;;;;;9173008;19;20025;-61
2022/03/07 15:54:10;;;;;;;4.93;2.60;;;9.30;57.60;;;;;;9173084;19;20014;-60
2022/03/07 15:57:15;;;;;;;7.50;2.78;;;9.30;57.50;;;;;;9170200;19;20022;-61
2022/03/07 16:00:21;;;;;;;4.82;3.00;;;9.30;57.60;;;;;;9171022;19;20033;-62
2022/03/07 16:03:26;;;;;;;5.72;2.80;;;9.20;57.50;;;;;;9172975;19;20022;-61
2022/03/07 16:06:31;;;;;;;5.05;2.65;;;9.20;57.50;;;;;;9172914;19;20039;-63
2022/03/07 16:09:39;;;;;;;5.47;2.95;;;9.20;57.50;;;;;;9170607;19;20018;-63
2022/03/07 16:12:44;;;;;;;8.43;3.13;;;9.20;57.50;;;;;;9172130;19;20490;-64